Time;durP1;ratioP1;P1;durP2;ratioP2;P2;SDS_P1;SDS_P2;PMS_P1;PMS_P2;Temp;Humidity;BMP_temperature;BMP_pressure;BME280_temperature;BME280_humidity;BME280_pressure;Samples;Min_cycle;Max_cycle;Signal;HPM_P1;HPM_P2
2022/07/30 00:01:51;;;;;;;7.65;6.78;;;;;;;20.46;80.31;100419.16;5024804;28;20045;-76
2022/07/30 00:04:18;;;;;;;8.23;7.30;;;;;;;20.39;80.72;100415.31;5020469;28;20146;-76
2022/07/30 00:06:45;;;;;;;7.60;6.80;;;;;;;20.32;81.39;100417.66;5021732;28;20053;-75
2022/07/30 00:09:12;;;;;;;7.22;6.25;;;;;;;20.23;81.89;100410.41;5018043;28;20567;-79
2022/07/30 00:11:38;;;;;;;9.50;7.85;;;;;;;20.18;82.13;100401.88;5020240;28;20098;-77
2022/07/30 00:14:05;;;;;;;6.70;5.93;;;;;;;20.17;81.69;100415.44;5021737;28;20093;-78
2022/07/30 00:16:32;;;;;;;7.75;5.63;;;;;;;20.14;81.13;100413.03;5021979;28;20054;-79
2022/07/30 00:18:58;;;;;;;6.40;5.47;;;;;;;20.07;80.30;100395.72;5025116;28;20058;-78
2022/07/30 00:21:25;;;;;;;7.88;4.82;;;;;;;20.03;79.58;100397.81;5021767;28;20137;-78
2022/07/30 00:24:05;;;;;;;5.22;4.75;;;;;;;19.90;79.42;100371.16;5027094;28;20689;-76
2022/07/30 00:26:31;;;;;;;6.10;4.72;;;;;;;20.07;79.18;100390.34;5029230;28;20065;-78
2022/07/30 00:28:58;;;;;;;5.63;5.13;;;;;;;20.08;78.93;100384.00;5023998;28;20050;-78
2022/07/30 00:31:24;;;;;;;5.35;4.85;;;;;;;20.07;77.88;100390.34;5022614;28;20104;-78
2022/07/30 00:33:51;;;;;;;7.35;5.22;;;;;;;19.99;78.33;100390.19;5021256;28;20438;-79
2022/07/30 00:36:18;;;;;;;8.75;5.00;;;;;;;19.94;78.10;100391.41;5026906;28;20053;-76
2022/07/30 00:38:44;;;;;;;6.28;4.90;;;;;;;19.84;77.68;100387.78;5024008;28;20136;-78
2022/07/30 00:41:11;;;;;;;6.50;4.60;;;;;;;19.76;77.08;100395.66;5022394;28;20485;-75
2022/07/30 00:43:41;;;;;;;4.70;4.30;;;;;;;19.77;77.79;100400.06;5021798;28;20061;-79
2022/07/30 00:46:08;;;;;;;6.53;4.25;;;;;;;19.77;77.46;100394.69;5023378;28;20482;-77
2022/07/30 00:48:35;;;;;;;4.57;4.18;;;;;;;19.68;77.93;100382.03;5027077;28;20522;-78
2022/07/30 00:51:02;;;;;;;4.95;4.43;;;;;;;19.72;77.71;100386.16;5023197;28;20049;-76
2022/07/30 00:53:28;;;;;;;5.13;4.40;;;;;;;19.71;77.77;100376.41;5017755;28;20224;-75
2022/07/30 00:55:55;;;;;;;6.07;4.30;;;;;;;19.71;77.77;100381.75;5020547;28;20076;-79
2022/07/30 00:58:22;;;;;;;4.55;4.15;;;;;;;19.73;77.78;100377.13;5054933;28;20077;-80
2022/07/30 01:00:48;;;;;;;4.65;4.25;;;;;;;19.66;77.37;100357.16;5021960;28;20104;-77
2022/07/30 01:03:15;;;;;;;5.93;4.72;;;;;;;19.71;77.72;100375.53;5026074;28;20760;-78
2022/07/30 01:05:42;;;;;;;4.45;4.05;;;;;;;19.58;77.23;100343.50;5031835;28;20034;-76
2022/07/30 01:08:08;;;;;;;4.95;3.95;;;;;;;19.67;76.51;100368.75;5027618;28;20042;-75
2022/07/30 01:10:35;;;;;;;5.78;3.88;;;;;;;19.67;77.00;100364.22;5030052;28;20072;-74
2022/07/30 01:13:02;;;;;;;6.15;3.85;;;;;;;19.68;76.66;100365.91;5032823;28;20053;-77
2022/07/30 01:15:30;;;;;;;5.00;4.25;;;;;;;19.68;76.54;100373.97;5035437;28;20127;-75
2022/07/30 01:18:00;;;;;;;6.40;4.40;;;;;;;19.62;76.67;100366.44;5035883;28;20050;-79
2022/07/30 01:20:35;;;;;;;4.30;3.90;;;;;;;19.61;76.89;100370.13;5035166;28;20076;-77
2022/07/30 01:23:36;;;;;;;5.43;4.25;;;;;;;19.55;76.72;100371.47;5039123;28;20045;-74
2022/07/30 01:26:08;;;;;;;5.95;4.22;;;;;;;19.55;76.79;100373.31;5023031;28;20085;-77
2022/07/30 01:28:40;;;;;;;4.32;3.53;;;;;;;19.49;76.97;100366.63;5038765;28;20069;-75
2022/07/30 01:31:09;;;;;;;6.43;4.40;;;;;;;19.49;76.93;100368.44;5037728;28;20084;-76
2022/07/30 01:33:39;;;;;;;4.88;4.40;;;;;;;19.27;76.50;100356.81;5031943;28;22753;-76
2022/07/30 01:36:09;;;;;;;5.82;3.75;;;;;;;19.34;77.62;100383.16;5024909;28;20172;-77
2022/07/30 01:38:37;;;;;;;6.07;3.90;;;;;;;19.19;76.89;100353.94;5025821;28;20053;-78
2022/07/30 01:41:05;;;;;;;5.20;4.22;;;;;;;19.15;76.46;100354.31;5035787;28;20054;-75
2022/07/30 01:43:34;;;;;;;4.40;4.00;;;;;;;19.18;76.48;100373.69;5033260;28;20490;-77
2022/07/30 01:46:02;;;;;;;4.57;4.05;;;;;;;19.18;76.95;100383.56;5036590;28;20049;-78
2022/07/30 01:48:33;;;;;;;7.03;3.72;;;;;;;19.01;76.51;100360.81;5042522;28;20135;-75
2022/07/30 01:51:03;;;;;;;4.38;3.72;;;;;;;19.08;76.33;100394.19;5038263;28;20037;-74
2022/07/30 01:53:32;;;;;;;4.50;4.03;;;;;;;18.99;77.05;100396.81;5034900;28;20057;-76
2022/07/30 01:56:01;;;;;;;4.35;3.78;;;;;;;18.94;77.56;100391.81;5023789;28;20094;-77
2022/07/30 01:58:31;;;;;;;4.28;3.85;;;;;;;18.94;77.47;100389.13;5020335;28;20778;-77
2022/07/30 02:00:58;;;;;;;4.70;3.70;;;;;;;18.78;77.31;100367.19;5024792;28;20049;-80
2022/07/30 02:03:26;;;;;;;5.57;3.58;;;;;;;18.90;77.12;100395.69;5021672;28;20475;-80
2022/07/30 02:05:56;;;;;;;3.90;3.60;;;;;;;18.83;77.40;100399.88;5019226;28;20144;-77
2022/07/30 02:08:29;;;;;;;5.30;4.22;;;;;;;18.82;77.49;100395.50;5021243;28;20044;-78
2022/07/30 02:11:07;;;;;;;3.65;3.35;;;;;;;18.75;77.82;100403.16;5022321;28;20044;-77
2022/07/30 02:13:49;;;;;;;4.43;4.03;;;;;;;18.70;78.25;100400.03;5023968;28;20481;-79
2022/07/30 02:16:24;;;;;;;7.43;4.40;;;;;;;18.66;78.59;100403.06;5019086;28;20379;-77
2022/07/30 02:19:05;;;;;;;5.15;3.97;;;;;;;18.68;78.51;100414.53;5017077;28;20049;-75
2022/07/30 02:21:38;;;;;;;5.10;4.00;;;;;;;18.57;78.74;100385.88;5020533;28;20089;-81
2022/07/30 02:24:20;;;;;;;5.85;3.97;;;;;;;18.77;78.19;100403.06;5018090;28;20089;-75
2022/07/30 02:26:53;;;;;;;5.10;4.22;;;;;;;18.72;78.12;100397.22;5020825;28;20542;-78
2022/07/30 02:29:22;;;;;;;4.82;3.85;;;;;;;18.79;77.26;100414.50;5016738;28;20258;-77
2022/07/30 02:31:50;;;;;;;5.45;3.67;;;;;;;18.78;78.20;100428.91;5020423;28;20045;-75
2022/07/30 02:34:20;;;;;;;5.20;3.60;;;;;;;18.82;78.14;100422.31;5019729;28;20439;-75
2022/07/30 02:36:47;;;;;;;4.15;3.55;;;;;;;18.72;78.10;100402.59;5020409;28;20037;-76
2022/07/30 02:39:15;;;;;;;5.30;4.35;;;;;;;18.85;77.68;100422.06;5020071;28;20192;-80
2022/07/30 02:41:43;;;;;;;5.43;4.10;;;;;;;18.78;77.85;100415.50;5020259;28;20474;-79
2022/07/30 02:44:18;;;;;;;4.43;4.00;;;;;;;18.66;77.79;100397.72;5021521;28;20045;-78
2022/07/30 02:46:46;;;;;;;6.18;4.05;;;;;;;18.61;78.12;100399.91;5017773;28;20041;-78
2022/07/30 02:49:16;;;;;;;5.07;4.15;;;;;;;18.63;78.52;100411.34;5022680;28;20076;-78
2022/07/30 02:51:46;;;;;;;4.93;3.70;;;;;;;18.65;78.45;100425.50;5020654;28;20078;-79
2022/07/30 02:54:15;;;;;;;5.03;3.47;;;;;;;18.67;78.61;100431.59;5020300;28;20073;-74
2022/07/30 02:56:43;;;;;;;4.28;3.85;;;;;;;18.66;78.63;100425.38;5022354;28;20533;-78
2022/07/30 02:59:11;;;;;;;4.95;4.10;;;;;;;18.69;78.49;100418.91;5019603;28;20065;-78
2022/07/30 03:01:38;;;;;;;5.80;3.80;;;;;;;18.71;78.37;100438.44;5018471;28;20064;-75
2022/07/30 03:04:06;;;;;;;4.25;3.67;;;;;;;18.60;78.67;100425.84;5020571;28;20132;-74
2022/07/30 03:06:34;;;;;;;4.53;3.90;;;;;;;18.56;78.42;100416.34;5031727;28;20049;-78
2022/07/30 03:09:03;;;;;;;4.20;3.80;;;;;;;18.61;78.41;100407.94;5016494;28;20065;-79
2022/07/30 03:11:30;;;;;;;4.32;3.92;;;;;;;18.75;77.93;100429.13;5018943;28;20766;-76
2022/07/30 03:13:57;;;;;;;4.43;3.70;;;;;;;18.71;77.89;100447.34;5020800;28;20104;-77
2022/07/30 03:16:27;;;;;;;3.95;3.58;;;;;;;18.62;78.09;100431.09;5019649;28;20049;-76
2022/07/30 03:18:58;;;;;;;6.68;4.10;;;;;;;18.66;78.53;100437.94;5016873;28;20559;-75
2022/07/30 03:21:26;;;;;;;4.50;3.93;;;;;;;18.71;78.34;100443.81;5019692;28;20048;-78
2022/07/30 03:23:57;;;;;;;4.47;3.58;;;;;;;18.75;78.12;100445.22;5021048;28;20133;-74
2022/07/30 03:26:25;;;;;;;7.13;4.22;;;;;;;18.69;78.00;100440.38;5020180;28;20127;-78
2022/07/30 03:28:52;;;;;;;4.90;4.00;;;;;;;18.71;78.51;100446.47;5018678;28;20077;-75
2022/07/30 03:31:19;;;;;;;5.05;4.15;;;;;;;18.70;78.29;100453.69;5017888;28;20045;-78
2022/07/30 03:33:47;;;;;;;5.38;4.40;;;;;;;18.66;78.64;100445.97;5019349;28;20045;-79
2022/07/30 03:36:14;;;;;;;4.88;4.07;;;;;;;18.65;78.80;100444.28;5020244;28;20473;-78
2022/07/30 03:38:42;;;;;;;4.10;3.70;;;;;;;18.57;78.76;100428.78;5017229;28;20713;-77
2022/07/30 03:41:10;;;;;;;6.45;4.22;;;;;;;18.70;78.75;100455.50;5021814;28;20049;-79
2022/07/30 03:43:39;;;;;;;5.05;4.30;;;;;;;18.63;79.13;100451.59;5015281;28;20131;-79
2022/07/30 03:46:06;;;;;;;6.35;4.35;;;;;;;18.55;79.74;100430.72;5014961;28;20099;-79
2022/07/30 03:48:34;;;;;;;5.88;4.78;;;;;;;18.69;79.90;100457.31;5017302;28;20123;-76
2022/07/30 03:51:05;;;;;;;5.50;4.88;;;;;;;18.66;80.74;100454.88;5014959;28;20524;-80
2022/07/30 03:53:31;;;;;;;7.00;6.15;;;;;;;18.73;82.55;100450.72;5018960;28;20069;-78
2022/07/30 03:55:59;;;;;;;6.40;5.80;;;;;;;18.78;82.60;100453.91;5021802;28;20041;-76
2022/07/30 03:58:26;;;;;;;7.97;5.75;;;;;;;18.89;82.24;100464.63;5015603;28;20494;-78
2022/07/30 04:00:59;;;;;;;8.63;5.97;;;;;;;18.79;81.79;100441.34;5019708;28;20067;-79
2022/07/30 04:03:31;;;;;;;6.43;5.50;;;;;;;18.92;81.99;100464.38;5016465;28;20102;-79
2022/07/30 04:05:58;;;;;;;7.30;5.93;;;;;;;18.77;81.76;100438.78;5021260;28;20049;-76
2022/07/30 04:08:26;;;;;;;7.55;5.50;;;;;;;18.91;81.52;100464.50;5016361;28;20124;-79
2022/07/30 04:10:53;;;;;;;7.30;5.55;;;;;;;18.94;81.78;100466.94;5018278;28;20076;-76
2022/07/30 04:13:20;;;;;;;6.60;6.00;;;;;;;19.03;81.49;100474.25;5018354;28;20131;-76
2022/07/30 04:16:09;;;;;;;7.68;6.35;;;;;;;19.12;81.17;100476.19;5019338;28;20128;-75
2022/07/30 04:18:58;;;;;;;11.55;6.80;;;;;;;19.16;80.65;100476.81;5020906;28;20378;-79
2022/07/30 04:21:27;;;;;;;9.15;7.45;;;;;;;19.05;81.25;100472.28;5019140;28;20119;-78
2022/07/30 04:23:54;;;;;;;9.65;8.55;;;;;;;18.93;82.79;100467.91;5021777;28;20045;-78
2022/07/30 04:26:33;;;;;;;9.13;8.13;;;;;;;18.80;84.02;100472.56;5022297;28;20041;-77
2022/07/30 04:29:01;;;;;;;9.00;8.03;;;;;;;18.73;85.29;100482.91;5022534;28;20111;-78
2022/07/30 04:31:34;;;;;;;10.68;8.43;;;;;;;18.61;86.03;100486.56;5025434;28;20054;-75
2022/07/30 04:34:07;;;;;;;9.20;7.57;;;;;;;18.52;86.97;100492.63;5022687;28;20053;-80
2022/07/30 04:36:34;;;;;;;8.05;7.25;;;;;;;18.63;87.50;100494.50;5022494;28;20583;-78
2022/07/30 04:39:02;;;;;;;8.52;7.72;;;;;;;18.69;86.40;100494.03;5020870;28;20057;-76
2022/07/30 04:41:29;;;;;;;8.75;7.60;;;;;;;18.76;86.02;100492.56;5025215;28;20516;-76
2022/07/30 04:44:15;;;;;;;8.45;7.65;;;;;;;18.78;86.16;100482.56;5023723;28;20046;-79
2022/07/30 04:46:41;;;;;;;9.85;7.63;;;;;;;18.94;84.87;100499.13;5019788;28;20041;-77
2022/07/30 04:49:10;;;;;;;8.98;7.53;;;;;;;18.98;84.74;100508.66;5016096;28;20053;-79
2022/07/30 04:51:37;;;;;;;10.48;8.80;;;;;;;18.93;84.33;100506.34;5020680;28;20045;-78
2022/07/30 04:54:07;;;;;;;9.13;8.18;;;;;;;18.68;85.11;100495.84;5022149;28;20142;-75
2022/07/30 04:56:42;;;;;;;8.23;7.38;;;;;;;18.71;86.10;100502.81;5019107;28;20059;-79
2022/07/30 04:59:22;;;;;;;9.02;7.25;;;;;;;18.75;84.47;100496.22;5021064;28;20739;-79
2022/07/30 05:01:50;;;;;;;10.70;6.85;;;;;;;18.92;84.33;100514.50;5021500;28;20144;-76
2022/07/30 05:04:19;;;;;;;7.75;6.60;;;;;;;19.00;83.70;100521.97;5017272;28;20481;-75
2022/07/30 05:06:46;;;;;;;7.05;6.13;;;;;;;19.04;82.75;100518.06;5020889;28;20239;-77
2022/07/30 05:09:14;;;;;;;7.57;6.40;;;;;;;19.06;82.36;100521.44;5021677;28;20069;-78
2022/07/30 05:11:41;;;;;;;7.97;7.18;;;;;;;18.90;82.45;100498.53;5019784;28;20124;-79
2022/07/30 05:14:08;;;;;;;8.85;7.82;;;;;;;18.93;82.90;100529.63;5021744;28;20077;-78
2022/07/30 05:16:34;;;;;;;8.20;7.40;;;;;;;18.77;83.57;100521.94;5021186;28;20062;-79
2022/07/30 05:19:01;;;;;;;8.32;7.53;;;;;;;18.74;83.60;100534.72;5019089;28;20045;-77
2022/07/30 05:21:33;;;;;;;8.45;7.45;;;;;;;18.70;84.38;100528.78;5020832;28;20049;-76
2022/07/30 05:24:00;;;;;;;8.40;7.60;;;;;;;18.71;84.15;100527.81;5022015;28;20042;-78
2022/07/30 05:26:27;;;;;;;7.88;7.13;;;;;;;18.78;84.58;100536.22;5019815;28;20191;-77
2022/07/30 05:28:53;;;;;;;9.68;8.25;;;;;;;18.87;84.25;100524.78;5019118;28;20106;-77
2022/07/30 05:31:23;;;;;;;10.75;8.90;;;;;;;18.93;83.72;100525.13;5022423;28;20730;-78
2022/07/30 05:33:51;;;;;;;9.63;8.63;;;;;;;18.97;83.05;100515.00;5020811;28;20465;-75
2022/07/30 05:36:20;;;;;;;10.80;7.95;;;;;;;19.13;82.67;100512.78;5015514;28;20063;-75
2022/07/30 05:38:47;;;;;;;10.63;8.60;;;;;;;19.23;81.92;100512.88;5015223;28;20069;-76
2022/07/30 05:41:14;;;;;;;10.25;9.15;;;;;;;19.38;81.73;100529.59;5020145;28;20057;-73
2022/07/30 05:43:58;;;;;;;9.77;8.77;;;;;;;19.40;81.63;100527.63;5024674;28;20140;-79
2022/07/30 05:46:24;;;;;;;11.30;10.07;;;;;;;19.50;81.77;100532.19;5021278;28;20072;-73
2022/07/30 05:48:51;;;;;;;11.60;10.38;;;;;;;19.49;81.26;100510.78;5028014;28;20056;-75
2022/07/30 05:51:19;;;;;;;13.00;10.50;;;;;;;19.65;80.75;100531.91;5024490;28;20051;-77
2022/07/30 05:53:46;;;;;;;10.85;9.77;;;;;;;19.73;80.51;100537.47;5022992;28;20057;-76
2022/07/30 05:56:13;;;;;;;9.90;8.90;;;;;;;19.76;78.84;100535.41;5024857;28;20104;-78
2022/07/30 05:58:39;;;;;;;11.63;9.25;;;;;;;19.79;78.00;100539.66;5019479;28;20126;-77
2022/07/30 06:01:06;;;;;;;10.68;9.18;;;;;;;19.76;78.04;100523.78;5018495;28;20088;-78
2022/07/30 06:03:34;;;;;;;10.13;8.25;;;;;;;19.88;77.55;100533.50;5021324;28;20378;-75
2022/07/30 06:06:03;;;;;;;13.55;11.05;;;;;;;19.82;75.30;100528.66;5023227;28;20052;-74
2022/07/30 06:08:30;;;;;;;11.70;10.60;;;;;;;19.72;76.51;100544.69;5016099;28;20655;-75
2022/07/30 06:10:57;;;;;;;14.05;11.43;;;;;;;19.55;78.52;100538.00;5024797;28;20053;-78
2022/07/30 06:13:24;;;;;;;17.83;11.45;;;;;;;19.53;78.87;100547.16;5019409;28;20063;-76
2022/07/30 06:15:51;;;;;;;14.45;11.88;;;;;;;19.47;78.26;100540.44;5017262;28;20132;-76
2022/07/30 06:18:17;;;;;;;14.43;11.45;;;;;;;19.59;78.90;100547.53;5017118;28;20045;-76
2022/07/30 06:20:44;;;;;;;12.70;10.82;;;;;;;19.76;77.67;100546.13;5020152;28;20164;-77
2022/07/30 06:23:11;;;;;;;13.35;10.68;;;;;;;20.09;75.77;100545.16;5017621;28;23077;-75
2022/07/30 06:25:38;;;;;;;13.48;10.30;;;;;;;20.46;73.46;100540.22;5015837;28;20080;-76
2022/07/30 06:28:06;;;;;;;11.82;9.48;;;;;;;20.77;70.69;100521.44;5015435;28;20053;-76
2022/07/30 06:30:52;;;;;;;9.93;8.50;;;;;;;21.12;68.98;100537.16;5015827;28;20945;-77
2022/07/30 06:33:19;;;;;;;14.02;9.50;;;;;;;21.39;67.08;100532.06;5014319;28;20111;-76
2022/07/30 06:35:47;;;;;;;11.60;9.43;;;;;;;21.43;67.27;100538.00;5018959;28;20129;-77
2022/07/30 06:38:14;;;;;;;10.43;8.73;;;;;;;21.57;66.93;100542.97;5016103;28;20133;-79
2022/07/30 06:40:41;;;;;;;10.55;9.10;;;;;;;21.70;65.84;100538.22;5016909;28;20144;-77
2022/07/30 06:43:07;;;;;;;11.43;8.60;;;;;;;21.84;66.39;100545.88;5015335;28;20519;-77
2022/07/30 06:45:34;;;;;;;11.82;8.45;;;;;;;22.37;63.85;100545.47;5016940;28;20139;-78
2022/07/30 06:48:01;;;;;;;9.07;6.93;;;;;;;22.86;61.52;100539.00;5015155;28;20041;-77
2022/07/30 06:50:28;;;;;;;9.93;7.43;;;;;;;23.20;61.26;100541.13;5018803;28;20130;-74
2022/07/30 06:52:54;;;;;;;10.02;7.32;;;;;;;23.55;58.43;100553.94;5019460;28;20131;-77
2022/07/30 06:55:21;;;;;;;8.38;6.72;;;;;;;23.65;57.39;100523.13;5016172;28;20124;-77
2022/07/30 06:57:47;;;;;;;9.65;6.35;;;;;;;24.04;56.68;100548.03;5017854;28;20077;-78
2022/07/30 07:00:14;;;;;;;9.40;6.65;;;;;;;24.25;55.27;100538.75;5016634;28;20103;-76
2022/07/30 07:02:41;;;;;;;8.48;6.00;;;;;;;24.37;54.63;100551.91;5018656;28;20501;-79
2022/07/30 07:05:08;;;;;;;8.55;6.13;;;;;;;24.54;54.41;100555.59;5015205;28;20077;-78
2022/07/30 07:07:35;;;;;;;10.88;6.68;;;;;;;24.68;52.70;100554.16;5013609;28;20466;-78
2022/07/30 07:10:11;;;;;;;10.40;5.88;;;;;;;24.72;52.64;100553.66;5023445;28;20053;-75
2022/07/30 07:12:38;;;;;;;8.57;5.57;;;;;;;24.75;52.65;100541.66;5020386;28;20092;-80
2022/07/30 07:15:05;;;;;;;12.55;6.43;;;;;;;24.95;51.70;100547.75;5020560;28;20144;-77
2022/07/30 07:17:32;;;;;;;7.82;5.80;;;;;;;25.10;50.97;100552.41;5021563;28;20440;-79
2022/07/30 07:19:59;;;;;;;9.20;5.72;;;;;;;25.21;50.91;100553.97;5028945;28;20041;-79
2022/07/30 07:22:28;;;;;;;9.02;6.18;;;;;;;25.24;49.83;100531.09;5032144;28;20048;-77
2022/07/30 07:24:54;;;;;;;10.23;5.90;;;;;;;25.53;49.57;100550.53;5026274;28;20081;-78
2022/07/30 07:27:21;;;;;;;7.60;5.90;;;;;;;25.66;48.82;100548.22;5025463;28;20115;-78
2022/07/30 07:29:48;;;;;;;7.03;6.00;;;;;;;25.65;48.54;100553.84;5026125;28;20069;-79
2022/07/30 07:32:31;;;;;;;7.43;5.30;;;;;;;25.68;48.48;100548.06;5029619;28;20048;-78
2022/07/30 07:34:58;;;;;;;10.63;6.20;;;;;;;25.72;47.95;100538.59;5022000;28;20076;-78
2022/07/30 07:37:24;;;;;;;6.60;5.13;;;;;;;25.68;48.75;100529.06;5024056;28;20132;-77
2022/07/30 07:39:51;;;;;;;8.77;5.30;;;;;;;25.98;47.33;100552.03;5024627;28;20061;-78
2022/07/30 07:42:17;;;;;;;10.80;5.68;;;;;;;26.09;46.62;100544.41;5021651;28;20789;-78
2022/07/30 07:44:44;;;;;;;11.50;5.93;;;;;;;26.10;46.28;100550.69;5025503;28;20060;-77
2022/07/30 07:47:11;;;;;;;7.93;5.90;;;;;;;25.60;47.38;100538.03;5025565;28;20053;-78
2022/07/30 07:49:37;;;;;;;9.18;6.63;;;;;;;25.33;47.81;100551.84;5028075;28;20133;-79
2022/07/30 07:52:04;;;;;;;9.48;5.10;;;;;;;24.94;49.93;100540.63;5027919;28;20069;-79
2022/07/30 07:54:31;;;;;;;8.23;6.78;;;;;;;25.02;49.22;100548.81;5029958;28;20042;-77
2022/07/30 07:56:58;;;;;;;9.30;5.80;;;;;;;25.27;48.29;100547.06;5030382;28;20410;-77
2022/07/30 07:59:27;;;;;;;9.23;5.93;;;;;;;25.37;47.42;100554.03;5032808;28;20053;-77
2022/07/30 08:02:06;;;;;;;9.50;6.35;;;;;;;24.83;48.07;100537.16;5026064;28;20083;-76
2022/07/30 08:04:34;;;;;;;7.30;5.28;;;;;;;24.71;49.34;100546.53;5020991;28;20128;-75
2022/07/30 08:07:01;;;;;;;7.63;4.75;;;;;;;25.21;48.65;100547.69;5022178;28;20085;-78
2022/07/30 08:09:28;;;;;;;7.05;5.60;;;;;;;25.61;46.92;100511.75;5023170;28;20054;-72
2022/07/30 08:12:11;;;;;;;8.35;5.15;;;;;;;26.16;46.22;100553.56;5018139;28;20216;-73
2022/07/30 08:14:38;;;;;;;11.38;6.80;;;;;;;25.66;45.98;100548.22;5028748;28;20073;-72
2022/07/30 08:17:05;;;;;;;7.05;6.15;;;;;;;25.47;47.36;100540.38;5027248;28;20132;-72
2022/07/30 08:19:32;;;;;;;12.98;6.78;;;;;;;25.77;45.86;100552.50;5030432;28;20046;-73
2022/07/30 08:21:59;;;;;;;7.95;5.60;;;;;;;26.00;46.55;100544.56;5027221;28;20045;-70
2022/07/30 08:24:26;;;;;;;8.43;5.50;;;;;;;26.47;45.30;100552.91;5031625;28;20055;-72
2022/07/30 08:26:52;;;;;;;6.65;5.75;;;;;;;26.72;44.17;100534.75;5030271;28;20050;-72
2022/07/30 08:29:19;;;;;;;11.65;6.25;;;;;;;26.85;43.29;100535.91;5033995;28;20556;-74
2022/07/30 08:31:46;;;;;;;8.30;5.43;;;;;;;27.06;43.63;100550.81;5026022;28;20581;-73
2022/07/30 08:34:12;;;;;;;8.90;4.75;;;;;;;27.17;42.53;100547.72;5028005;28;20484;-73
2022/07/30 08:36:39;;;;;;;11.02;5.22;;;;;;;27.42;41.59;100552.03;5021490;28;20132;-73
2022/07/30 08:39:06;;;;;;;9.43;5.93;;;;;;;27.58;41.45;100549.25;5023335;28;20124;-74
2022/07/30 08:41:34;;;;;;;10.18;6.10;;;;;;;27.21;41.82;100552.66;5026637;28;20103;-72
2022/07/30 08:44:02;;;;;;;8.57;6.32;;;;;;;26.75;42.42;100539.84;5029563;28;20464;-74
2022/07/30 08:46:32;;;;;;;9.52;5.45;;;;;;;26.94;42.32;100533.19;5019433;28;20894;-73
2022/07/30 08:48:59;;;;;;;9.50;6.10;;;;;;;27.26;41.72;100546.66;5025862;28;20073;-74
2022/07/30 08:51:36;;;;;;;8.48;6.13;;;;;;;26.66;42.84;100547.13;5023223;28;20490;-75
2022/07/30 08:54:04;;;;;;;9.25;5.82;;;;;;;25.90;44.54;100547.44;5031817;28;20104;-76
2022/07/30 08:56:32;;;;;;;8.73;6.47;;;;;;;25.24;45.04;100531.97;5025018;28;20053;-74
2022/07/30 08:59:00;;;;;;;7.28;5.07;;;;;;;25.37;46.22;100545.06;5025311;28;20107;-75
2022/07/30 09:01:26;;;;;;;6.43;4.85;;;;;;;25.99;45.44;100545.56;5019019;28;20085;-74
2022/07/30 09:03:53;;;;;;;9.30;4.90;;;;;;;26.41;43.63;100543.59;5020777;28;20049;-73
2022/07/30 09:06:20;;;;;;;9.05;4.93;;;;;;;26.32;43.98;100536.47;5026103;28;20494;-74
2022/07/30 09:08:46;;;;;;;7.75;5.35;;;;;;;25.76;41.46;100535.38;5025085;28;20111;-74
2022/07/30 09:11:13;;;;;;;7.25;5.00;;;;;;;25.60;41.79;100548.88;5027097;28;20072;-75
2022/07/30 09:13:41;;;;;;;5.20;4.35;;;;;;;25.47;42.52;100532.22;5023627;28;20099;-76
2022/07/30 09:16:21;;;;;;;7.50;4.85;;;;;;;25.22;42.59;100560.22;5025733;28;20190;-78
2022/07/30 09:18:48;;;;;;;8.88;5.47;;;;;;;24.94;46.05;100557.72;5026385;28;20064;-75
2022/07/30 09:21:22;;;;;;;7.80;5.35;;;;;;;24.04;48.98;100561.56;5022093;28;20136;-72
2022/07/30 09:23:56;;;;;;;12.07;5.43;;;;;;;23.24;48.98;100554.19;5023890;28;20135;-79
2022/07/30 09:26:23;;;;;;;8.50;5.80;;;;;;;22.71;50.94;100541.28;5029340;28;20107;-78
2022/07/30 09:28:50;;;;;;;9.70;5.28;;;;;;;22.65;53.01;100558.06;5025774;28;20049;-78
2022/07/30 09:31:17;;;;;;;7.47;4.82;;;;;;;22.69;52.30;100559.47;5023704;28;20080;-77
2022/07/30 09:33:46;;;;;;;9.05;5.57;;;;;;;22.85;52.36;100553.47;5027989;28;20049;-78
2022/07/30 09:36:15;;;;;;;6.75;5.07;;;;;;;22.89;51.12;100559.44;5032559;28;20401;-79
2022/07/30 09:38:50;;;;;;;8.27;5.03;;;;;;;22.64;52.16;100547.41;5039559;28;20049;-81
2022/07/30 09:41:34;;;;;;;9.18;5.90;;;;;;;22.61;52.19;100539.59;5030792;28;20059;-76
2022/07/30 09:44:05;;;;;;;7.93;5.95;;;;;;;22.87;53.44;100545.25;5035901;28;20132;-77
2022/07/30 09:47:00;;;;;;;8.88;6.47;;;;;;;23.33;48.62;100558.69;5035344;28;20056;-80
2022/07/30 09:49:27;;;;;;;9.55;5.18;;;;;;;23.34;49.46;100557.69;5027617;28;20053;-79
2022/07/30 09:51:55;;;;;;;7.95;5.75;;;;;;;23.54;45.75;100565.75;5031693;28;20060;-76
2022/07/30 09:54:24;;;;;;;7.03;5.40;;;;;;;23.90;45.11;100562.09;5039404;28;20136;-77
2022/07/30 09:57:06;;;;;;;9.75;5.85;;;;;;;24.50;44.05;100553.34;5035670;28;20053;-77
2022/07/30 09:59:52;;;;;;;6.57;4.70;;;;;;;;;;5036415;28;20060;-77
2022/07/30 10:02:27;;;;;;;10.88;6.18;;;;;;;25.62;41.43;100551.44;5031242;28;20053;-78
2022/07/30 10:05:10;;;;;;;11.25;5.57;;;;;;;25.75;39.53;100557.25;5036170;28;20048;-78
2022/07/30 10:08:00;;;;;;;7.28;4.28;;;;;;;25.80;39.21;100561.19;5037405;28;20131;-80
2022/07/30 10:10:35;;;;;;;7.28;4.90;;;;;;;25.81;38.41;100549.28;5032827;28;20080;-77
2022/07/30 10:13:13;;;;;;;9.85;4.28;;;;;;;26.00;37.83;100558.97;5032286;28;20049;-77
2022/07/30 10:15:48;;;;;;;6.22;4.53;;;;;;;26.03;37.99;100560.50;5030083;28;20045;-78
2022/07/30 10:18:15;;;;;;;5.68;4.13;;;;;;;26.07;36.62;100557.31;5034887;28;20056;-77
2022/07/30 10:20:43;;;;;;;4.75;3.92;;;;;;;26.12;35.34;100546.81;5027878;28;20100;-80
2022/07/30 10:23:11;;;;;;;5.07;3.92;;;;;;;26.25;36.17;100542.72;5033260;28;20077;-78
2022/07/30 10:25:43;;;;;;;8.25;6.05;;;;;;;26.48;35.44;100536.47;5034862;28;20063;-77
2022/07/30 10:28:20;;;;;;;5.22;4.05;;;;;;;26.76;35.05;100536.91;5029567;28;20057;-78
2022/07/30 10:30:52;;;;;;;6.22;3.80;;;;;;;26.71;34.39;100538.47;5031857;28;20036;-77
2022/07/30 10:33:22;;;;;;;6.53;3.30;;;;;;;26.55;34.64;100539.34;5031840;28;20111;-78
2022/07/30 10:36:01;;;;;;;5.75;3.90;;;;;;;26.69;34.83;100516.06;5036092;28;20060;-78
2022/07/30 10:38:33;;;;;;;5.65;3.45;;;;;;;26.97;33.91;100535.56;5029043;28;20045;-77
2022/07/30 10:41:28;;;;;;;7.10;3.60;;;;;;;26.65;35.42;100536.44;5028514;28;20049;-79
2022/07/30 10:44:35;;;;;;;3.63;3.33;;;;;;;26.40;36.38;100538.34;5031098;28;20053;-78
2022/07/30 10:47:06;;;;;;;5.53;3.28;;;;;;;26.54;36.40;100526.78;5033364;28;20099;-80
2022/07/30 10:49:36;;;;;;;6.40;3.65;;;;;;;26.65;35.30;100517.44;5028627;28;20072;-80
2022/07/30 10:52:10;;;;;;;4.25;2.92;;;;;;;26.48;34.35;100525.59;5032964;28;20357;-78
2022/07/30 10:54:41;;;;;;;3.63;2.97;;;;;;;26.49;35.28;100529.16;5028831;28;20045;-79
2022/07/30 10:57:12;;;;;;;;;;;;;;;26.42;36.27;100539.03;5029274;28;20052;-79
2022/07/30 10:59:59;;;;;;;5.60;3.40;;;;;;;26.53;36.05;100527.81;5033668;28;19921;-78
2022/07/30 11:02:33;;;;;;;3.53;3.15;;;;;;;26.76;35.86;100523.34;5032623;28;20050;-79
2022/07/30 11:05:33;;;;;;;6.93;3.20;;;;;;;26.75;35.38;100531.69;5031348;28;20073;-77
2022/07/30 11:08:31;;;;;;;6.63;3.75;;;;;;;26.64;36.01;100530.16;5004444;28;20057;-78
2022/07/30 11:11:04;;;;;;;5.75;3.38;;;;;;;26.48;36.62;100533.75;5033820;28;20045;-78
2022/07/30 11:13:56;;;;;;;5.63;3.08;;;;;;;26.27;36.68;100516.25;5030897;28;20041;-77
2022/07/30 11:16:42;;;;;;;5.30;3.10;;;;;;;26.55;36.65;100529.34;5034670;28;20873;-81
2022/07/30 11:19:16;;;;;;;3.85;3.55;;;;;;;26.77;36.25;100527.75;5037434;28;20091;-77
2022/07/30 11:22:52;;;;;;;5.22;3.50;;;;;;;27.10;35.67;100525.81;5034607;28;20037;-77
2022/07/30 11:25:21;;;;;;;4.53;2.88;;;;;;;27.11;34.93;100526.66;5025590;28;20447;-76
2022/07/30 11:27:49;;;;;;;6.85;3.20;;;;;;;26.43;36.07;100519.00;5033422;28;21357;-79
2022/07/30 11:30:19;;;;;;;4.65;2.80;;;;;;;26.21;37.04;100520.50;5033194;28;20041;-77
2022/07/30 11:32:50;;;;;;;3.88;2.88;;;;;;;26.26;36.53;100517.28;5034672;28;20068;-78
2022/07/30 11:35:28;;;;;;;5.03;2.92;;;;;;;26.58;35.96;100521.88;5040740;28;20072;-76
2022/07/30 11:38:19;;;;;;;4.38;3.00;;;;;;;26.72;36.39;100521.16;5041281;28;20041;-79
2022/07/30 11:40:47;;;;;;;5.40;3.28;;;;;;;26.47;36.39;100523.91;5039885;28;20081;-79